Time;durP1;ratioP1;P1;durP2;ratioP2;P2;SDS_P1;SDS_P2;PMS_P1;PMS_P2;Temp;Humidity;BMP_temperature;BMP_pressure;BME280_temperature;BME280_humidity;BME280_pressure;Samples;Min_cycle;Max_cycle;Signal;HPM_P1;HPM_P2
2021/01/17 00:00:23;;;;;;;30.65;14.18;;;;;;;-0.78;100.00;101264.38;4932684;29;20054;-78
2021/01/17 00:02:51;;;;;;;30.17;13.88;;;;;;;-0.74;100.00;101244.31;4948183;29;20027;-79
2021/01/17 00:05:20;;;;;;;28.08;13.35;;;;;;;-0.74;100.00;101245.09;4941663;29;20043;-79
2021/01/17 00:07:45;;;;;;;29.15;14.00;;;;;;;-0.85;100.00;101243.50;4947076;28;20054;-79
2021/01/17 00:10:13;;;;;;;28.67;12.73;;;;;;;-0.84;100.00;101245.09;4928114;29;20031;-80
2021/01/17 00:12:40;;;;;;;21.80;11.15;;;;;;;-0.82;100.00;101245.63;4959708;28;20050;-79
2021/01/17 00:15:09;;;;;;;23.45;10.77;;;;;;;-0.99;100.00;101248.50;4945328;29;20035;-80
2021/01/17 00:17:35;;;;;;;23.48;11.50;;;;;;;-0.78;100.00;101232.66;4951584;28;20039;-79
2021/01/17 00:20:01;;;;;;;26.55;12.57;;;;;;;-0.81;100.00;101228.69;4957851;28;20094;-79
2021/01/17 00:22:26;;;;;;;30.52;13.65;;;;;;;-0.86;100.00;101227.91;4963248;28;20146;-79
2021/01/17 00:24:52;;;;;;;32.70;14.20;;;;;;;-0.80;100.00;101225.00;4969524;28;20118;-79
2021/01/17 00:27:18;;;;;;;32.28;14.45;;;;;;;-0.75;100.00;101225.00;4969567;28;20030;-79
2021/01/17 00:29:44;;;;;;;27.02;12.80;;;;;;;-0.89;100.00;101225.81;4930474;28;20031;-79
2021/01/17 00:32:12;;;;;;;26.85;12.85;;;;;;;-0.85;100.00;101217.06;4959267;28;20109;-79
2021/01/17 00:34:39;;;;;;;25.98;11.88;;;;;;;-0.83;100.00;101212.31;4944635;29;20023;-79
2021/01/17 00:37:06;;;;;;;22.15;10.95;;;;;;;-0.91;100.00;101207.59;4923554;29;20031;-79
2021/01/17 00:39:31;;;;;;;21.83;11.13;;;;;;;-0.93;100.00;101215.75;4945608;28;20039;-79
2021/01/17 00:41:57;;;;;;;22.80;10.90;;;;;;;-0.71;100.00;101218.13;4950623;28;20027;-79
2021/01/17 00:44:23;;;;;;;22.00;11.13;;;;;;;-0.80;100.00;101211.81;4939240;29;20099;-80
2021/01/17 00:46:49;;;;;;;24.98;11.55;;;;;;;-0.85;100.00;101203.09;4954659;28;20062;-79
2021/01/17 00:49:35;;;;;;;24.58;11.77;;;;;;;-0.84;100.00;101208.09;4934276;29;20031;-80
2021/01/17 00:52:01;;;;;;;25.75;11.55;;;;;;;-0.89;100.00;101212.59;4898591;29;20075;-79
2021/01/17 00:54:27;;;;;;;25.33;12.05;;;;;;;-0.84;100.00;101207.28;4896255;29;20047;-79
2021/01/17 00:56:53;;;;;;;23.67;11.57;;;;;;;-0.92;100.00;101206.78;4903772;29;20145;-78
2021/01/17 00:59:21;;;;;;;25.77;11.80;;;;;;;-0.94;100.00;101208.09;4905551;29;20086;-79
2021/01/17 01:01:48;;;;;;;22.13;11.05;;;;;;;-0.94;100.00;101213.38;4908999;29;20606;-80
2021/01/17 01:04:17;;;;;;;24.33;11.80;;;;;;;-1.12;100.00;101209.41;4899205;29;20067;-79
2021/01/17 01:06:43;;;;;;;30.00;11.95;;;;;;;-1.27;100.00;101213.88;4904602;29;20068;-80
2021/01/17 01:09:15;;;;;;;26.08;11.85;;;;;;;-1.18;100.00;101204.41;4882925;29;21034;-78
2021/01/17 01:11:41;;;;;;;25.13;12.25;;;;;;;-1.08;100.00;101214.94;4903523;29;20174;-78
2021/01/17 01:14:07;;;;;;;24.50;11.90;;;;;;;-1.13;100.00;101209.69;4887195;29;20112;-79
2021/01/17 01:16:33;;;;;;;23.15;11.30;;;;;;;-1.04;100.00;101218.66;4897514;29;20049;-80
2021/01/17 01:18:59;;;;;;;24.27;12.20;;;;;;;-1.15;100.00;101207.31;4895144;29;20438;-79
2021/01/17 01:21:46;;;;;;;24.83;11.90;;;;;;;-1.21;100.00;101212.84;4897943;29;20477;-79
2021/01/17 01:24:12;;;;;;;24.25;11.43;;;;;;;-1.12;100.00;101211.25;4841675;29;20124;-78
2021/01/17 01:26:40;;;;;;;27.40;12.27;;;;;;;-1.17;100.00;101211.25;4842297;29;20521;-79
2021/01/17 01:29:06;;;;;;;27.80;13.35;;;;;;;-1.16;100.00;101211.00;4865974;29;20064;-78
2021/01/17 01:31:32;;;;;;;24.15;12.77;;;;;;;-1.19;100.00;101210.72;4859868;29;20037;-78
2021/01/17 01:33:58;;;;;;;25.05;11.95;;;;;;;-1.26;100.00;101197.75;4856930;29;20033;-79
2021/01/17 01:36:29;;;;;;;25.75;11.80;;;;;;;-1.26;100.00;101208.34;4864572;29;20509;-79
2021/01/17 01:38:56;;;;;;;26.13;12.68;;;;;;;-1.20;100.00;101203.88;4888429;29;20041;-78
2021/01/17 01:41:26;;;;;;;22.50;11.73;;;;;;;-1.10;100.00;101203.84;4873610;29;20137;-78
2021/01/17 01:43:52;;;;;;;25.05;12.57;;;;;;;-1.12;100.00;101211.25;4878957;29;20707;-79
2021/01/17 01:46:20;;;;;;;26.35;12.63;;;;;;;-1.25;100.00;101203.84;4866002;29;20211;-79
2021/01/17 01:48:45;;;;;;;23.17;12.50;;;;;;;-1.26;100.00;101207.56;4870499;29;20601;-78
2021/01/17 01:51:16;;;;;;;27.88;12.73;;;;;;;-1.18;100.00;101204.41;4846055;29;20177;-79
2021/01/17 01:53:42;;;;;;;24.92;12.55;;;;;;;-1.23;100.00;101196.47;4864085;29;20112;-78
2021/01/17 01:56:08;;;;;;;27.58;12.73;;;;;;;-1.21;100.00;101197.00;4867822;29;20048;-78
2021/01/17 01:58:36;;;;;;;26.05;11.93;;;;;;;-1.14;100.00;101197.50;4852778;29;20045;-79
2021/01/17 02:01:04;;;;;;;23.60;12.20;;;;;;;-1.11;100.00;101208.38;4909939;29;20075;-80
2021/01/17 02:03:29;;;;;;;28.55;13.02;;;;;;;-1.05;100.00;101202.03;4940384;29;20043;-79
2021/01/17 02:05:54;;;;;;;27.58;12.88;;;;;;;-0.91;100.00;101205.72;4952647;29;20046;-79
2021/01/17 02:08:43;;;;;;;25.67;12.32;;;;;;;-0.99;100.00;101200.19;4945075;28;20032;-78
2021/01/17 02:11:11;;;;;;;30.98;13.02;;;;;;;-0.97;100.00;101185.63;4926030;29;20036;-80
2021/01/17 02:13:42;;;;;;;26.45;12.57;;;;;;;-0.80;100.00;101198.59;4944025;28;20066;-79
2021/01/17 02:16:08;;;;;;;27.08;13.32;;;;;;;-0.77;100.00;101186.69;4936491;29;20071;-80
2021/01/17 02:18:41;;;;;;;28.45;12.93;;;;;;;-0.76;100.00;101178.50;4937987;28;20039;-80
2021/01/17 02:21:08;;;;;;;25.98;13.07;;;;;;;-0.78;100.00;101191.19;4939833;28;20650;-79
2021/01/17 02:23:50;;;;;;;29.65;14.00;;;;;;;-0.81;100.00;101190.94;4926090;28;20020;-79
2021/01/17 02:26:16;;;;;;;24.98;13.02;;;;;;;-0.69;100.00;101183.50;4915509;29;20044;-79
2021/01/17 02:28:42;;;;;;;28.13;14.05;;;;;;;-0.74;100.00;101178.22;4942153;28;20148;-78
2021/01/17 02:31:08;;;;;;;27.90;13.40;;;;;;;-0.87;100.00;101171.63;4936906;29;20552;-80
2021/01/17 02:33:36;;;;;;;26.45;13.55;;;;;;;-0.73;100.00;101177.16;4935426;28;20105;-80
2021/01/17 02:36:28;;;;;;;26.00;12.52;;;;;;;-0.78;100.00;101169.25;4940927;28;20036;-79
2021/01/17 02:38:59;;;;;;;26.77;13.23;;;;;;;-0.84;100.00;101175.59;4914117;28;20137;-80
2021/01/17 02:41:51;;;;;;;27.88;13.60;;;;;;;-0.75;100.00;101172.13;4935749;29;20050;-80
2021/01/17 02:44:19;;;;;;;29.50;13.32;;;;;;;-0.67;100.00;101173.44;4965904;28;20039;-80
2021/01/17 02:46:45;;;;;;;29.50;14.18;;;;;;;-0.73;100.00;101174.50;4962567;28;20102;-80
2021/01/17 02:49:10;;;;;;;29.23;13.98;;;;;;;-0.68;100.00;101172.66;4930800;28;20046;-79
2021/01/17 02:51:36;;;;;;;29.10;13.82;;;;;;;-0.69;100.00;101165.00;4939167;29;20035;-79
2021/01/17 02:54:13;;;;;;;26.10;13.15;;;;;;;-0.76;100.00;101170.56;4957800;28;20135;-80
2021/01/17 02:57:01;;;;;;;28.67;14.00;;;;;;;-0.87;100.00;101171.63;4941069;29;20094;-80
2021/01/17 02:59:33;;;;;;;24.67;12.88;;;;;;;-0.76;100.00;101167.91;4940443;29;20035;-80
2021/01/17 03:02:02;;;;;;;27.55;13.05;;;;;;;-0.80;100.00;101168.72;4943448;29;20035;-79
2021/01/17 03:04:46;;;;;;;27.13;13.50;;;;;;;-0.84;100.00;101159.72;4933873;28;20042;-80
2021/01/17 03:07:13;;;;;;;29.58;13.55;;;;;;;-0.78;100.00;101166.59;4940120;29;20039;-79
2021/01/17 03:09:43;;;;;;;28.00;14.13;;;;;;;-0.67;100.00;101166.31;4940641;29;20035;-80
2021/01/17 03:12:09;;;;;;;31.45;14.35;;;;;;;-0.59;100.00;101167.63;4911386;29;20038;-80
2021/01/17 03:14:35;;;;;;;30.45;14.35;;;;;;;-0.63;100.00;101161.28;4940678;29;20091;-79
2021/01/17 03:17:04;;;;;;;30.70;14.77;;;;;;;-0.59;100.00;101157.03;4943945;28;20070;-80
2021/01/17 03:19:29;;;;;;;27.92;14.32;;;;;;;-0.59;100.00;101173.69;4955778;28;20038;-80
2021/01/17 03:21:55;;;;;;;30.85;14.98;;;;;;;-0.68;100.00;101166.59;4942548;28;20045;-80
2021/01/17 03:24:40;;;;;;;27.23;13.98;;;;;;;-0.66;100.00;101169.75;4966062;28;20042;-79
2021/01/17 03:27:08;;;;;;;29.13;14.05;;;;;;;-0.68;100.00;101162.09;4884168;29;20055;-80
2021/01/17 03:29:34;;;;;;;32.45;14.63;;;;;;;-0.68;100.00;101175.31;4914686;29;20058;-80
2021/01/17 03:31:59;;;;;;;29.63;14.77;;;;;;;-0.62;100.00;101174.22;4900261;29;20131;-80
2021/01/17 03:34:25;;;;;;;29.50;14.40;;;;;;;-0.62;100.00;101162.88;4908906;29;20033;-79
2021/01/17 03:36:50;;;;;;;31.55;14.93;;;;;;;-0.48;100.00;101162.03;4897987;29;20055;-80
2021/01/17 03:39:16;;;;;;;31.77;14.85;;;;;;;-0.41;100.00;101165.22;4885908;29;20100;-80
2021/01/17 03:41:41;;;;;;;32.15;15.05;;;;;;;-0.34;100.00;101168.34;4906582;29;20036;-80
2021/01/17 03:44:10;;;;;;;30.35;15.02;;;;;;;-0.44;100.00;101165.72;4884942;29;20401;-78
2021/01/17 03:46:36;;;;;;;29.83;14.50;;;;;;;-0.32;100.00;101168.06;4897157;29;20036;-80
2021/01/17 03:49:01;;;;;;;31.63;14.77;;;;;;;-0.26;100.00;101157.22;4885651;29;20041;-80
2021/01/17 03:51:27;;;;;;;30.02;13.82;;;;;;;-0.39;100.00;101157.81;4888005;29;20096;-78
2021/01/17 03:53:52;;;;;;;30.60;14.95;;;;;;;-0.39;100.00;101160.44;4885938;29;20088;-80
2021/01/17 03:56:18;;;;;;;32.10;14.60;;;;;;;-0.34;100.00;101165.72;4905445;29;20032;-79
2021/01/17 03:58:43;;;;;;;30.45;15.20;;;;;;;-0.32;100.00;101160.13;4900084;29;20192;-80
2021/01/17 04:01:09;;;;;;;31.70;15.35;;;;;;;-0.45;100.00;101161.50;4885657;29;20032;-80
2021/01/17 04:03:35;;;;;;;28.58;14.93;;;;;;;-0.43;100.00;101158.59;4909116;29;20143;-80
2021/01/17 04:06:00;;;;;;;28.42;14.30;;;;;;;-0.38;100.00;101159.38;4945195;28;20328;-79
2021/01/17 04:08:26;;;;;;;33.30;15.05;;;;;;;-0.34;100.00;101154.31;4940852;29;20159;-80
2021/01/17 04:10:52;;;;;;;32.42;15.70;;;;;;;-0.37;100.00;101149.59;4947043;29;20027;-80
2021/01/17 04:13:17;;;;;;;30.95;15.25;;;;;;;-0.35;100.00;101150.13;4961109;28;20089;-78
2021/01/17 04:15:43;;;;;;;32.05;14.95;;;;;;;-0.28;100.00;101148.75;4946871;29;20036;-78
2021/01/17 04:18:09;;;;;;;32.88;16.45;;;;;;;-0.22;100.00;101152.97;4965482;28;20101;-79
2021/01/17 04:20:35;;;;;;;34.42;16.02;;;;;;;-0.25;100.00;101145.56;4948689;28;20451;-80
2021/01/17 04:23:04;;;;;;;33.28;15.30;;;;;;;-0.42;100.00;101136.38;4931590;29;20604;-79
2021/01/17 04:25:29;;;;;;;33.08;15.18;;;;;;;-0.32;100.00;101146.91;4943004;29;20083;-79
2021/01/17 04:27:55;;;;;;;30.70;14.07;;;;;;;-0.25;100.00;101144.75;4944020;29;20055;-80
2021/01/17 04:30:22;;;;;;;36.42;15.30;;;;;;;-0.23;100.00;101151.38;4959656;28;20031;-80
2021/01/17 04:32:49;;;;;;;35.10;16.40;;;;;;;-0.34;100.00;101151.69;4943686;29;20066;-80
2021/01/17 04:35:14;;;;;;;33.58;15.68;;;;;;;-0.46;100.00;101151.97;4942218;28;20039;-78
2021/01/17 04:38:00;;;;;;;33.17;15.15;;;;;;;-0.57;100.00;101158.38;4962092;28;20046;-80
2021/01/17 04:40:28;;;;;;;32.38;15.23;;;;;;;-0.58;100.00;101148.84;4893751;29;20425;-79
2021/01/17 04:43:07;;;;;;;35.40;15.55;;;;;;;-0.60;100.00;101150.19;4893423;29;20080;-80
2021/01/17 04:45:34;;;;;;;34.30;15.85;;;;;;;-0.57;100.00;101152.28;4887806;29;20084;-79
2021/01/17 04:48:01;;;;;;;33.30;15.02;;;;;;;-0.56;100.00;101146.72;4903107;29;20032;-78
2021/01/17 04:50:30;;;;;;;32.55;14.75;;;;;;;-0.53;100.00;101156.78;4897486;29;20529;-80
2021/01/17 04:53:01;;;;;;;33.75;15.55;;;;;;;-0.39;100.00;101149.06;4878221;29;20565;-80
2021/01/17 04:55:27;;;;;;;35.47;16.35;;;;;;;-0.41;100.00;101151.19;4911212;29;20056;-80
2021/01/17 04:58:14;;;;;;;33.50;15.82;;;;;;;-0.39;100.00;101149.88;4894028;29;20068;-79
2021/01/17 05:00:41;;;;;;;33.85;15.45;;;;;;;-0.73;100.00;101156.00;4886604;29;20093;-78
2021/01/17 05:03:22;;;;;;;36.00;15.88;;;;;;;-0.76;100.00;101157.34;4901176;29;20050;-79
2021/01/17 05:06:08;;;;;;;37.83;16.90;;;;;;;-0.84;100.00;101163.16;4900040;29;20503;-79
2021/01/17 05:08:34;;;;;;;34.97;14.77;;;;;;;-0.84;100.00;101168.47;4899607;29;20510;-79
2021/01/17 05:11:06;;;;;;;37.22;16.42;;;;;;;-0.76;100.00;101159.19;4889843;29;20061;-79
2021/01/17 05:14:01;;;;;;;38.85;16.27;;;;;;;-0.86;100.00;101165.28;4908335;29;20092;-80
2021/01/17 05:16:30;;;;;;;32.53;15.15;;;;;;;-0.69;100.00;101157.84;4912335;29;20059;-80
2021/01/17 05:18:56;;;;;;;34.08;15.07;;;;;;;-0.73;100.00;101164.72;4915559;29;20038;-80
2021/01/17 05:21:25;;;;;;;32.97;15.00;;;;;;;-0.83;100.00;101161.31;4957119;28;20042;-79
2021/01/17 05:23:56;;;;;;;34.13;15.63;;;;;;;-0.90;100.00;101161.59;4961201;28;20027;-79
2021/01/17 05:26:21;;;;;;;37.22;16.10;;;;;;;-0.97;100.00;101166.38;4924855;29;20547;-78
2021/01/17 05:28:47;;;;;;;35.97;15.18;;;;;;;-0.93;100.00;101167.41;4957200;28;20041;-80
2021/01/17 05:31:17;;;;;;;34.33;16.10;;;;;;;-0.98;100.00;101164.75;4944017;29;20043;-79
2021/01/17 05:33:42;;;;;;;39.65;15.55;;;;;;;-0.95;100.00;101169.53;4962369;28;20043;-80
2021/01/17 05:36:14;;;;;;;33.28;15.93;;;;;;;-0.81;100.00;101164.50;4944554;29;20039;-80
2021/01/17 05:38:39;;;;;;;28.33;14.95;;;;;;;-0.93;100.00;101162.91;4925823;28;20081;-80
2021/01/17 05:41:05;;;;;;;34.90;15.65;;;;;;;-0.88;100.00;101170.03;4938271;28;20027;-80
2021/01/17 05:43:30;;;;;;;36.83;16.10;;;;;;;-0.83;100.00;101169.25;4929531;29;20048;-79
2021/01/17 05:45:57;;;;;;;32.10;15.05;;;;;;;-0.84;100.00;101173.75;4948892;29;20039;-80
2021/01/17 05:48:22;;;;;;;35.15;16.45;;;;;;;-0.87;100.00;101168.19;4931922;28;20039;-79
2021/01/17 05:50:48;;;;;;;36.15;15.80;;;;;;;-0.93;100.00;101170.06;4933254;28;20051;-80
2021/01/17 05:53:14;;;;;;;35.63;16.05;;;;;;;-0.98;100.00;101170.03;4925909;29;20050;-79
2021/01/17 05:55:44;;;;;;;32.83;15.48;;;;;;;-0.95;100.00;101180.88;4942353;28;20113;-79
2021/01/17 05:58:42;;;;;;;35.37;16.77;;;;;;;-0.84;100.00;101176.38;4914860;29;20403;-79
2021/01/17 06:01:14;;;;;;;35.72;15.88;;;;;;;-0.96;100.00;101183.78;4933485;29;20047;-78
2021/01/17 06:03:51;;;;;;;36.33;16.35;;;;;;;-0.89;100.00;101184.31;4933276;29;20032;-79
2021/01/17 06:06:31;;;;;;;37.38;16.65;;;;;;;-0.94;100.00;101182.47;4948706;28;20077;-79
2021/01/17 06:08:58;;;;;;;35.55;15.73;;;;;;;-0.98;100.00;101180.63;4928649;29;20564;-79
2021/01/17 06:11:44;;;;;;;35.40;16.08;;;;;;;-1.01;100.00;101175.88;4938212;29;20115;-79
2021/01/17 06:14:10;;;;;;;35.00;16.48;;;;;;;-0.99;100.00;101179.03;4932706;28;20043;-79
2021/01/17 06:16:42;;;;;;;34.33;15.52;;;;;;;-0.96;100.00;101183.78;4920910;29;20043;-79
2021/01/17 06:19:12;;;;;;;36.38;16.17;;;;;;;-0.93;100.00;101188.56;4944526;29;20447;-78
2021/01/17 06:21:38;;;;;;;39.45;16.27;;;;;;;-1.05;100.00;101185.38;4914734;29;20048;-78
2021/01/17 06:24:06;;;;;;;34.45;16.65;;;;;;;-1.16;100.00;101189.84;4907516;29;20059;-79
2021/01/17 06:26:34;;;;;;;34.85;16.45;;;;;;;-0.92;100.00;101184.84;4935300;29;20122;-79
2021/01/17 06:29:03;;;;;;;36.42;16.33;;;;;;;-1.16;100.00;101178.53;4925968;29;20047;-80
2021/01/17 06:31:31;;;;;;;38.70;16.80;;;;;;;-1.11;100.00;101183.78;4942067;29;20058;-80
2021/01/17 06:34:08;;;;;;;39.90;17.35;;;;;;;-1.10;100.00;101188.00;4937894;29;20032;-79
2021/01/17 06:36:36;;;;;;;34.35;15.32;;;;;;;-1.18;100.00;101180.63;4937573;29;20035;-77
2021/01/17 06:39:02;;;;;;;38.25;16.85;;;;;;;-1.21;100.00;101184.59;4940382;29;20039;-78
2021/01/17 06:41:39;;;;;;;35.53;16.20;;;;;;;-0.96;100.00;101191.72;4920362;29;20044;-80
2021/01/17 06:44:13;;;;;;;36.58;16.23;;;;;;;-0.99;100.00;101185.09;4918092;29;20066;-78
2021/01/17 06:46:46;;;;;;;36.75;15.68;;;;;;;-1.10;100.00;101188.00;4934700;29;20043;-78
2021/01/17 06:49:20;;;;;;;38.58;15.93;;;;;;;-1.18;100.00;101191.19;4918083;29;20135;-78
2021/01/17 06:51:46;;;;;;;36.90;15.90;;;;;;;-1.20;100.00;101198.59;4930132;29;20046;-77
2021/01/17 06:54:13;;;;;;;35.50;15.70;;;;;;;-1.14;100.00;101195.66;4940800;28;20055;-79
2021/01/17 06:56:41;;;;;;;34.90;16.30;;;;;;;-1.32;100.00;101195.41;4926628;29;20047;-80
2021/01/17 06:59:06;;;;;;;36.67;15.50;;;;;;;-1.33;100.00;101196.44;4945319;28;20046;-80
2021/01/17 07:01:43;;;;;;;37.85;15.60;;;;;;;-1.11;100.00;101197.00;4929386;28;20038;-80
2021/01/17 07:04:14;;;;;;;37.53;16.45;;;;;;;-1.18;100.00;101199.13;4942322;28;20059;-81
2021/01/17 07:07:06;;;;;;;34.33;15.88;;;;;;;-1.20;100.00;101203.88;4936960;29;20309;-79
2021/01/17 07:09:48;;;;;;;33.05;15.40;;;;;;;-1.19;100.00;101208.09;4948792;28;20083;-80
2021/01/17 07:12:43;;;;;;;35.40;16.02;;;;;;;-1.36;100.00;101205.69;4946898;29;21703;-79
2021/01/17 07:15:10;;;;;;;37.22;15.77;;;;;;;-1.22;100.00;101208.63;4928913;28;20035;-81
2021/01/17 07:17:38;;;;;;;33.00;16.05;;;;;;;-1.28;100.00;101212.31;4927093;29;20121;-80
2021/01/17 07:20:12;;;;;;;37.75;16.48;;;;;;;-1.25;100.00;101211.78;4958499;28;20039;-80
2021/01/17 07:22:39;;;;;;;37.67;16.15;;;;;;;-1.25;100.00;101211.78;4942679;29;20098;-79
2021/01/17 07:25:07;;;;;;;36.72;16.80;;;;;;;-1.37;100.00;101214.66;4947679;28;20488;-80
2021/01/17 07:28:04;;;;;;;36.13;15.82;;;;;;;-1.44;100.00;101218.59;4945902;29;20027;-81
2021/01/17 07:31:01;;;;;;;38.83;16.60;;;;;;;-1.44;100.00;101213.31;4925306;28;20035;-80
2021/01/17 07:33:38;;;;;;;35.83;14.88;;;;;;;-1.38;100.00;101218.38;4940796;29;20126;-80
2021/01/17 07:36:13;;;;;;;36.65;15.10;;;;;;;-1.24;100.00;101214.16;4947723;28;20063;-80
2021/01/17 07:38:45;;;;;;;38.03;15.85;;;;;;;-1.24;100.00;101218.66;4951624;28;20031;-80
2021/01/17 07:41:13;;;;;;;36.53;16.42;;;;;;;-1.26;100.00;101210.19;4940137;29;20039;-80
2021/01/17 07:43:42;;;;;;;34.70;15.70;;;;;;;-1.38;100.00;101221.00;4943828;28;20036;-80
2021/01/17 07:46:18;;;;;;;36.83;16.60;;;;;;;-1.42;100.00;101219.94;4937784;29;20551;-79
2021/01/17 07:48:45;;;;;;;36.65;17.17;;;;;;;-1.56;100.00;101232.03;4935804;29;20039;-80
2021/01/17 07:51:14;;;;;;;33.38;15.60;;;;;;;-1.59;100.00;101232.56;4943390;29;20041;-80
2021/01/17 07:53:39;;;;;;;36.10;15.65;;;;;;;-1.55;100.00;101238.13;4943340;29;20039;-81
2021/01/17 07:56:25;;;;;;;35.53;15.48;;;;;;;-1.43;100.00;101238.69;4943984;28;20058;-80
2021/01/17 07:58:52;;;;;;;40.25;16.50;;;;;;;-1.37;100.00;101232.34;4943722;29;21995;-79
2021/01/17 08:01:40;;;;;;;39.30;17.63;;;;;;;-1.49;100.00;101251.06;4954552;28;20029;-81
2021/01/17 08:04:05;;;;;;;35.33;15.98;;;;;;;-1.58;100.00;101247.34;4939666;28;20032;-81
2021/01/17 08:06:33;;;;;;;35.03;15.27;;;;;;;-1.56;100.00;101247.09;4946656;28;20094;-80
2021/01/17 08:09:00;;;;;;;33.45;15.93;;;;;;;-1.53;100.00;101246.59;4959202;28;20043;-81
2021/01/17 08:11:39;;;;;;;39.40;17.25;;;;;;;-1.46;100.00;101253.19;4954980;28;20030;-81
2021/01/17 08:14:20;;;;;;;36.67;16.40;;;;;;;-1.59;100.00;101248.41;4949976;28;20122;-81
2021/01/17 08:17:08;;;;;;;37.92;16.38;;;;;;;-1.51;100.00;101255.03;4947390;28;20035;-81
2021/01/17 08:19:38;;;;;;;35.35;16.52;;;;;;;-1.51;100.00;101250.53;4919438;29;20134;-80
2021/01/17 08:22:16;;;;;;;37.58;16.92;;;;;;;-1.59;100.00;101260.81;4953206;28;20045;-80
2021/01/17 08:24:45;;;;;;;36.00;16.15;;;;;;;-1.59;100.00;101261.63;4942355;28;20090;-81
2021/01/17 08:27:32;;;;;;;42.53;17.38;;;;;;;-1.36;100.00;101276.19;4963524;28;20022;-79
2021/01/17 08:30:00;;;;;;;38.42;16.27;;;;;;;-1.36;100.00;101266.44;4948232;29;20059;-80
2021/01/17 08:32:44;;;;;;;34.15;16.30;;;;;;;-1.27;100.00;101277.25;4976190;28;20106;-80
2021/01/17 08:35:15;;;;;;;36.03;16.13;;;;;;;-1.11;100.00;101278.91;4921016;29;20110;-81
2021/01/17 08:37:42;;;;;;;31.08;15.63;;;;;;;-1.19;100.00;101284.69;4945506;29;20043;-79
2021/01/17 08:40:08;;;;;;;35.55;16.85;;;;;;;-1.29;100.00;101280.16;4923386;29;20069;-80
2021/01/17 08:42:39;;;;;;;34.97;15.45;;;;;;;-1.09;100.00;101287.34;4945803;29;20087;-80
2021/01/17 08:45:25;;;;;;;34.10;16.05;;;;;;;-0.99;100.00;101288.16;4921414;28;20102;-80
2021/01/17 08:47:53;;;;;;;33.65;15.43;;;;;;;-0.91;100.00;101282.34;4941621;29;20034;-79
2021/01/17 08:50:33;;;;;;;35.83;16.10;;;;;;;-0.94;100.00;101300.56;4943328;29;20039;-81
2021/01/17 08:53:21;;;;;;;35.70;16.23;;;;;;;-0.89;100.00;101295.28;4920769;28;20050;-78
2021/01/17 08:55:48;;;;;;;36.25;15.65;;;;;;;-0.84;100.00;101300.59;4959104;28;20099;-80
2021/01/17 08:58:17;;;;;;;36.88;16.10;;;;;;;-0.82;100.00;101306.41;4942700;28;20050;-81
2021/01/17 09:00:45;;;;;;;35.90;16.38;;;;;;;-0.72;100.00;101311.72;4944345;28;20094;-80
2021/01/17 09:03:27;;;;;;;36.47;16.60;;;;;;;-0.59;100.00;101316.47;4947338;28;20097;-81
2021/01/17 09:06:00;;;;;;;33.13;15.95;;;;;;;-0.87;100.00;101322.25;4936351;29;20043;-81
2021/01/17 09:08:27;;;;;;;39.22;15.98;;;;;;;-0.72;100.00;101317.00;4927905;28;20086;-80
2021/01/17 09:10:53;;;;;;;35.20;16.40;;;;;;;-0.71;100.00;101329.16;4942540;28;20077;-78
2021/01/17 09:13:22;;;;;;;33.90;15.70;;;;;;;-0.82;100.00;101332.84;4955581;28;20031;-81
2021/01/17 09:16:16;;;;;;;34.05;15.07;;;;;;;-0.81;100.00;101334.41;4959899;28;20495;-79
2021/01/17 09:18:42;;;;;;;31.15;15.00;;;;;;;-0.59;100.00;101337.63;4928805;28;20047;-80
2021/01/17 09:21:08;;;;;;;31.08;14.98;;;;;;;-0.85;100.00;101337.88;4928515;29;20102;-79
2021/01/17 09:23:40;;;;;;;31.75;15.45;;;;;;;-0.75;100.00;101346.59;4942251;28;20031;-81
2021/01/17 09:26:07;;;;;;;34.63;15.43;;;;;;;-0.55;100.00;101338.69;4945583;28;20149;-80
2021/01/17 09:28:33;;;;;;;31.27;15.10;;;;;;;-0.38;100.00;101349.00;4942708;28;20471;-81
2021/01/17 09:31:01;;;;;;;29.77;14.98;;;;;;;-0.26;100.00;101366.19;4953979;28;20041;-81
2021/01/17 09:33:28;;;;;;;38.40;15.75;;;;;;;-0.41;100.00;101366.22;4938286;29;20032;-81
2021/01/17 09:35:55;;;;;;;34.72;15.27;;;;;;;-0.52;100.00;101359.31;4948771;28;20401;-80
2021/01/17 09:38:23;;;;;;;30.73;15.10;;;;;;;-0.50;100.00;101362.47;4935056;29;20042;-80
2021/01/17 09:40:53;;;;;;;29.20;14.32;;;;;;;-0.42;100.00;101367.25;4954781;28;20029;-77
2021/01/17 09:43:19;;;;;;;33.55;14.82;;;;;;;-0.44;100.00;101365.91;4961150;28;20096;-81
2021/01/17 09:45:53;;;;;;;30.42;14.52;;;;;;;-0.48;100.00;101378.06;4946576;28;20066;-80
2021/01/17 09:48:20;;;;;;;33.30;14.68;;;;;;;-0.70;100.00;101370.41;4978514;28;20034;-77
2021/01/17 09:50:46;;;;;;;32.33;14.55;;;;;;;-0.67;100.00;101375.16;4958200;28;20034;-80
2021/01/17 09:53:13;;;;;;;31.42;15.15;;;;;;;-0.67;100.00;101382.28;4926163;29;20389;-80
2021/01/17 09:55:44;;;;;;;31.13;15.20;;;;;;;-0.61;100.00;101387.34;4944762;28;20043;-80
2021/01/17 09:58:11;;;;;;;;;;;;;;;-0.43;100.00;101381.53;4929618;29;20042;-81
2021/01/17 10:00:37;;;;;;;31.38;13.85;;;;;;;-0.23;100.00;101389.47;4933261;28;19917;-80
2021/01/17 10:03:11;;;;;;;32.90;14.95;;;;;;;-0.25;100.00;101381.00;4920481;28;20035;-80
2021/01/17 10:05:38;;;;;;;32.20;14.98;;;;;;;-0.05;100.00;101380.22;4909207;29;20031;-81
2021/01/17 10:08:09;;;;;;;33.78;15.10;;;;;;;-0.14;100.00;101387.09;4945609;28;20023;-79
2021/01/17 10:10:36;;;;;;;32.55;14.82;;;;;;;-0.05;100.00;101383.66;4931726;29;20038;-80
2021/01/17 10:13:03;;;;;;;29.65;14.35;;;;;;;0.20;100.00;101376.72;4942725;28;20039;-81
2021/01/17 10:15:28;;;;;;;29.95;14.57;;;;;;;0.21;100.00;101378.31;4920856;29;20118;-80
2021/01/17 10:17:54;;;;;;;30.85;14.48;;;;;;;-0.03;100.00;101373.59;4941090;28;20069;-80
2021/01/17 10:20:47;;;;;;;31.40;14.75;;;;;;;0.19;100.00;101377.81;4944894;28;20085;-79
2021/01/17 10:23:13;;;;;;;30.38;13.75;;;;;;;0.39;99.44;101383.03;4898739;29;20074;-80
2021/01/17 10:25:39;;;;;;;32.65;15.60;;;;;;;0.39;99.68;101369.78;4903558;29;20044;-79
2021/01/17 10:28:26;;;;;;;30.13;14.30;;;;;;;0.37;99.05;101367.41;4903257;29;20096;-79
2021/01/17 10:30:59;;;;;;;32.33;15.32;;;;;;;0.18;99.46;101368.25;4837545;29;20136;-81
2021/01/17 10:33:31;;;;;;;31.40;15.18;;;;;;;0.33;99.44;101371.66;4837869;29;20052;-79
2021/01/17 10:35:57;;;;;;;33.65;15.15;;;;;;;0.32;98.62;101371.94;4851973;29;20041;-81
2021/01/17 10:38:23;;;;;;;31.30;15.32;;;;;;;0.38;99.54;101370.88;4829987;29;20121;-80
2021/01/17 10:40:49;;;;;;;33.10;15.48;;;;;;;0.43;99.22;101374.28;4844226;29;20050;-80
2021/01/17 10:43:29;;;;;;;28.90;14.13;;;;;;;0.32;99.59;101370.09;4861105;29;20488;-78
2021/01/17 10:46:21;;;;;;;29.63;14.55;;;;;;;0.46;99.79;101372.97;4838259;29;20603;-79
2021/01/17 10:48:56;;;;;;;27.83;14.20;;;;;;;0.71;98.48;101378.19;4834601;29;20058;-78
2021/01/17 10:51:58;;;;;;;30.13;15.38;;;;;;;0.71;98.26;101370.22;4824158;29;20034;-80
2021/01/17 10:54:32;;;;;;;30.70;14.90;;;;;;;0.80;97.66;101371.25;4822010;29;20098;-79
2021/01/17 10:57:05;;;;;;;29.63;13.85;;;;;;;0.98;97.09;101375.94;4822686;29;20393;-80
2021/01/17 10:59:33;;;;;;;27.40;13.95;;;;;;;1.22;96.64;101379.50;4834445;29;20499;-79
2021/01/17 11:01:58;;;;;;;31.50;15.07;;;;;;;1.35;95.45;101373.63;4866564;29;20049;-80
2021/01/17 11:04:24;;;;;;;33.30;15.68;;;;;;;1.40;95.22;101372.78;4863133;29;20098;-79
2021/01/17 11:06:56;;;;;;;30.30;14.43;;;;;;;1.31;94.67;101369.94;4888007;29;20036;-79
2021/01/17 11:09:22;;;;;;;32.35;14.65;;;;;;;1.30;94.50;101372.81;4923487;29;20094;-80
2021/01/17 11:11:50;;;;;;;27.80;13.95;;;;;;;1.26;94.59;101372.59;4953193;28;20039;-78
2021/01/17 11:14:25;;;;;;;30.67;14.60;;;;;;;1.20;94.89;101372.91;4937501;29;20058;-79
2021/01/17 11:16:53;;;;;;;27.27;13.60;;;;;;;1.14;94.57;101371.34;4952242;28;20035;-78
2021/01/17 11:19:19;;;;;;;31.17;14.38;;;;;;;1.01;95.13;101367.44;4937786;29;20035;-79